Time;durP1;ratioP1;P1;durP2;ratioP2;P2;SDS_P1;SDS_P2;PMS_P1;PMS_P2;Temp;Humidity;BMP_temperature;BMP_pressure;BME280_temperature;BME280_humidity;BME280_pressure;Samples;Min_cycle;Max_cycle;Signal;HPM_P1;HPM_P2
2022/03/01 00:01:24;;;;;;;18.90;9.63;;;4.30;91.50;;;;;;5117643;27;20054;-83
2022/03/01 00:03:50;;;;;;;20.80;10.15;;;4.10;91.50;;;;;;5117408;27;20046;-83
2022/03/01 00:06:16;;;;;;;20.30;9.18;;;4.20;91.90;;;;;;5118037;27;20043;-83
2022/03/01 00:08:41;;;;;;;19.38;9.63;;;4.20;91.90;;;;;;5101183;27;20087;-82
2022/03/01 00:11:07;;;;;;;20.52;10.00;;;4.30;91.80;;;;;;5117942;27;20138;-83
2022/03/01 00:13:33;;;;;;;19.23;10.27;;;4.20;91.90;;;;;;5101150;27;20062;-83
2022/03/01 00:15:59;;;;;;;18.70;9.55;;;4.30;92.00;;;;;;5084814;27;20139;-83
2022/03/01 00:18:24;;;;;;;18.63;9.38;;;4.40;91.90;;;;;;5117912;27;20473;-82
2022/03/01 00:20:50;;;;;;;19.67;9.65;;;4.40;91.90;;;;;;5117539;27;20152;-82
2022/03/01 00:23:16;;;;;;;18.27;10.07;;;4.60;91.80;;;;;;5100723;27;20039;-83
2022/03/01 00:25:41;;;;;;;23.35;9.60;;;4.50;91.50;;;;;;5117563;27;20057;-87
2022/03/01 00:28:07;;;;;;;17.73;9.63;;;4.40;91.60;;;;;;5117345;27;20096;-83
2022/03/01 00:30:33;;;;;;;18.63;9.30;;;4.30;91.70;;;;;;5100882;27;20501;-83
2022/03/01 00:32:58;;;;;;;18.05;9.68;;;4.20;91.90;;;;;;5117580;27;20043;-83
2022/03/01 00:35:24;;;;;;;20.90;9.07;;;4.00;91.90;;;;;;5117511;27;20482;-82
2022/03/01 00:37:50;;;;;;;19.55;9.80;;;4.10;92.00;;;;;;5117477;27;20389;-83
2022/03/01 00:40:15;;;;;;;19.60;9.43;;;4.00;92.10;;;;;;5117508;27;20091;-83
2022/03/01 00:42:41;;;;;;;16.85;9.07;;;4.00;92.10;;;;;;5100533;27;20050;-83
2022/03/01 00:45:07;;;;;;;20.75;9.32;;;4.00;92.20;;;;;;5117041;27;20043;-83
2022/03/01 00:47:33;;;;;;;18.92;8.88;;;3.90;92.20;;;;;;5100385;27;20121;-82
2022/03/01 00:49:58;;;;;;;16.17;8.45;;;3.80;92.30;;;;;;5117138;27;20473;-83
2022/03/01 00:52:24;;;;;;;21.85;9.82;;;3.90;92.40;;;;;;5117976;27;20043;-83
2022/03/01 00:54:50;;;;;;;18.17;9.88;;;3.80;92.30;;;;;;5100949;27;20359;-82
2022/03/01 00:57:15;;;;;;;21.63;9.73;;;3.80;92.40;;;;;;5116709;27;20091;-82
2022/03/01 00:59:41;;;;;;;20.98;9.32;;;3.80;92.50;;;;;;5083315;27;20039;-82
2022/03/01 01:02:07;;;;;;;16.48;9.27;;;3.80;92.50;;;;;;5117053;27;20129;-83
2022/03/01 01:04:33;;;;;;;19.33;9.20;;;3.90;92.60;;;;;;5116795;27;20398;-83
2022/03/01 01:06:59;;;;;;;17.17;9.07;;;3.80;92.40;;;;;;5116756;27;20047;-82
2022/03/01 01:09:24;;;;;;;17.90;9.25;;;3.90;92.60;;;;;;5099767;27;20086;-82
2022/03/01 01:11:50;;;;;;;19.20;9.90;;;3.90;92.60;;;;;;5099918;27;20054;-82
2022/03/01 01:14:16;;;;;;;16.83;8.65;;;3.80;92.50;;;;;;5116450;27;20066;-83
2022/03/01 01:16:41;;;;;;;20.77;9.82;;;3.80;92.50;;;;;;5099482;28;20064;-83
2022/03/01 01:19:07;;;;;;;17.27;9.00;;;3.70;92.40;;;;;;5082775;27;20043;-82
2022/03/01 01:24:17;;;;;;;15.85;8.63;;;3.80;92.70;;;;;;5116430;27;20053;-83
2022/03/01 01:26:42;;;;;;;19.50;9.65;;;3.70;92.80;;;;;;5116450;27;20042;-83
2022/03/01 01:29:08;;;;;;;20.13;9.20;;;3.80;92.60;;;;;;5116621;28;20051;-83
2022/03/01 01:31:34;;;;;;;19.95;9.40;;;3.80;92.50;;;;;;5082705;28;20050;-83
2022/03/01 01:33:59;;;;;;;17.48;8.88;;;3.70;92.60;;;;;;5116484;28;20112;-83
2022/03/01 01:36:25;;;;;;;17.45;8.63;;;3.80;92.80;;;;;;5099694;28;20471;-82
2022/03/01 01:38:54;;;;;;;19.17;9.77;;;3.70;92.60;;;;;;5116541;28;20114;-83
2022/03/01 01:41:20;;;;;;;17.83;8.85;;;3.60;92.60;;;;;;5116477;28;20050;-83
2022/03/01 01:43:45;;;;;;;18.90;9.13;;;3.50;92.70;;;;;;5116348;28;20462;-83
2022/03/01 01:46:11;;;;;;;19.20;9.32;;;3.60;92.90;;;;;;5116626;28;20164;-83
2022/03/01 01:48:37;;;;;;;19.17;9.10;;;3.60;93.00;;;;;;5100035;28;20059;-83
2022/03/01 01:51:02;;;;;;;18.27;9.38;;;3.70;92.90;;;;;;5116445;28;20046;-82
2022/03/01 01:53:28;;;;;;;16.98;9.52;;;3.60;92.80;;;;;;5116482;28;20082;-83
2022/03/01 01:55:54;;;;;;;17.75;9.02;;;3.60;93.10;;;;;;5099126;28;20044;-83
2022/03/01 01:58:19;;;;;;;17.48;8.93;;;3.50;92.90;;;;;;5099497;28;20043;-82
2022/03/01 02:00:45;;;;;;;19.77;9.40;;;3.60;93.10;;;;;;5116380;28;20048;-82
2022/03/01 02:03:11;;;;;;;18.08;8.75;;;3.40;93.00;;;;;;5099320;28;20058;-83
2022/03/01 02:05:37;;;;;;;20.65;9.98;;;3.40;93.10;;;;;;5099719;28;20055;-83
2022/03/01 02:08:03;;;;;;;20.27;9.45;;;3.40;93.20;;;;;;5116294;28;20042;-82
2022/03/01 02:10:29;;;;;;;17.77;9.15;;;3.40;93.10;;;;;;5116112;28;20069;-82
2022/03/01 02:12:56;;;;;;;18.92;8.70;;;3.40;93.20;;;;;;5099181;28;20112;-82
2022/03/01 02:15:23;;;;;;;20.40;9.50;;;3.40;93.10;;;;;;5116224;28;20146;-82
2022/03/01 02:17:49;;;;;;;19.13;9.25;;;3.50;93.40;;;;;;5099213;28;20055;-82
2022/03/01 02:20:19;;;;;;;21.38;10.18;;;3.60;93.40;;;;;;5101482;27;20039;-82
2022/03/01 02:22:46;;;;;;;19.25;9.23;;;3.60;93.10;;;;;;5086381;27;20133;-82
2022/03/01 02:25:13;;;;;;;18.95;8.70;;;3.60;93.10;;;;;;5102641;27;20043;-83
2022/03/01 02:27:40;;;;;;;18.92;9.30;;;3.60;93.40;;;;;;5102605;27;20103;-83
2022/03/01 02:30:07;;;;;;;17.42;9.55;;;3.60;93.20;;;;;;5119993;27;20136;-83
2022/03/01 02:32:34;;;;;;;18.63;8.68;;;3.60;93.30;;;;;;5119897;27;20058;-83
2022/03/01 02:35:00;;;;;;;20.67;9.52;;;3.60;93.40;;;;;;5102767;27;20047;-83
2022/03/01 02:37:26;;;;;;;18.30;8.77;;;3.60;93.10;;;;;;5102999;27;20103;-83
2022/03/01 02:39:53;;;;;;;20.38;9.40;;;3.60;93.00;;;;;;5119760;27;20046;-83
2022/03/01 02:42:20;;;;;;;18.10;9.00;;;3.50;93.10;;;;;;5119646;27;20051;-83
2022/03/01 02:44:47;;;;;;;17.80;9.13;;;3.50;93.30;;;;;;5102547;27;20084;-83
2022/03/01 02:47:14;;;;;;;19.67;8.98;;;3.50;93.30;;;;;;5119743;27;20055;-83
2022/03/01 02:49:40;;;;;;;18.23;9.68;;;3.50;93.30;;;;;;5119660;27;20126;-83
2022/03/01 02:52:06;;;;;;;16.88;9.15;;;3.50;93.40;;;;;;5119211;27;20442;-83
2022/03/01 02:54:31;;;;;;;16.60;9.10;;;3.50;93.40;;;;;;5119484;27;20120;-83
2022/03/01 02:57:00;;;;;;;18.40;9.40;;;3.50;93.40;;;;;;5101957;27;20074;-82
2022/03/01 02:59:27;;;;;;;19.52;9.52;;;3.50;93.30;;;;;;5102956;27;20051;-83
2022/03/01 03:01:53;;;;;;;17.70;8.98;;;3.40;93.40;;;;;;5103158;27;20449;-82
2022/03/01 03:04:19;;;;;;;18.33;9.05;;;3.30;93.40;;;;;;5101988;27;20130;-83
2022/03/01 03:06:45;;;;;;;20.60;9.77;;;3.20;93.60;;;;;;5085501;27;20440;-82
2022/03/01 03:09:10;;;;;;;19.63;9.55;;;3.20;93.70;;;;;;5118932;27;20079;-82
2022/03/01 03:11:36;;;;;;;19.45;9.30;;;3.30;93.80;;;;;;5119832;27;20051;-82
2022/03/01 03:14:02;;;;;;;21.58;10.35;;;3.40;93.80;;;;;;5118346;27;20047;-83
2022/03/01 03:16:27;;;;;;;18.88;9.65;;;3.50;93.70;;;;;;5119453;27;20039;-82
2022/03/01 03:18:53;;;;;;;18.73;10.05;;;3.40;93.70;;;;;;5118960;27;20390;-82
2022/03/01 03:21:19;;;;;;;17.02;8.63;;;3.40;93.60;;;;;;5119104;27;20431;-82
2022/03/01 03:23:45;;;;;;;17.70;8.73;;;3.30;93.80;;;;;;5118819;27;20050;-82
2022/03/01 03:26:11;;;;;;;17.83;9.45;;;3.30;93.70;;;;;;5118493;27;20402;-82
2022/03/01 03:28:37;;;;;;;20.10;9.15;;;3.30;93.70;;;;;;5118974;27;20043;-82
2022/03/01 03:31:03;;;;;;;19.63;8.95;;;3.20;93.90;;;;;;5101797;27;20047;-82
2022/03/01 03:33:28;;;;;;;21.73;10.32;;;3.30;94.00;;;;;;5118671;27;20047;-83
2022/03/01 03:35:54;;;;;;;17.13;9.05;;;3.30;93.90;;;;;;5118688;27;20104;-82
2022/03/01 03:38:20;;;;;;;21.90;9.52;;;3.30;93.80;;;;;;5101694;27;20088;-82
2022/03/01 03:40:46;;;;;;;18.10;9.35;;;3.40;93.90;;;;;;5101891;27;20043;-82
2022/03/01 03:43:12;;;;;;;19.08;9.75;;;3.50;93.80;;;;;;5118522;27;20126;-82
2022/03/01 03:45:37;;;;;;;18.15;9.45;;;3.60;93.60;;;;;;5101479;27;20456;-81
2022/03/01 03:48:04;;;;;;;18.38;8.93;;;3.70;93.40;;;;;;5084551;27;20046;-82
2022/03/01 03:50:30;;;;;;;19.75;9.77;;;3.80;93.10;;;;;;5118375;27;20494;-82
2022/03/01 03:52:55;;;;;;;19.92;9.73;;;3.90;92.50;;;;;;5118323;27;20070;-82
2022/03/01 03:55:21;;;;;;;19.38;9.93;;;3.90;92.80;;;;;;5118116;27;20435;-82
2022/03/01 03:57:47;;;;;;;20.92;9.48;;;4.00;92.80;;;;;;5117228;27;20046;-81
2022/03/01 04:00:16;;;;;;;18.95;9.45;;;4.10;92.30;;;;;;5118253;27;20050;-82
2022/03/01 04:02:46;;;;;;;20.73;9.65;;;4.10;92.50;;;;;;5101160;27;20039;-81
2022/03/01 04:05:13;;;;;;;18.92;9.10;;;4.10;92.20;;;;;;5117805;27;20039;-82
2022/03/01 04:07:43;;;;;;;23.38;9.70;;;4.10;92.00;;;;;;5118783;27;20057;-82
2022/03/01 04:10:10;;;;;;;18.95;9.63;;;4.10;92.10;;;;;;5101419;27;20066;-82
2022/03/01 04:12:36;;;;;;;18.67;9.45;;;4.20;92.00;;;;;;5118086;27;20059;-82
2022/03/01 04:15:04;;;;;;;20.90;9.65;;;4.30;91.90;;;;;;5100957;27;20043;-82
2022/03/01 04:17:30;;;;;;;20.88;9.57;;;4.30;91.80;;;;;;5117782;27;20039;-81
2022/03/01 04:19:55;;;;;;;20.42;9.57;;;4.30;91.80;;;;;;5117870;27;20054;-81
2022/03/01 04:22:21;;;;;;;19.83;10.02;;;4.40;91.70;;;;;;5100786;27;20043;-81
2022/03/01 04:24:47;;;;;;;18.50;9.32;;;4.40;91.90;;;;;;5117431;27;20531;-81
2022/03/01 04:27:13;;;;;;;20.35;9.52;;;4.30;91.60;;;;;;5117188;27;20043;-81
2022/03/01 04:29:39;;;;;;;18.73;9.57;;;4.10;91.60;;;;;;5117475;27;20046;-82
2022/03/01 04:32:05;;;;;;;17.17;8.85;;;4.20;91.70;;;;;;5117612;27;20043;-81
2022/03/01 04:34:31;;;;;;;17.88;9.20;;;4.20;91.60;;;;;;5083655;27;20044;-81
2022/03/01 04:36:57;;;;;;;23.38;10.27;;;4.30;91.70;;;;;;5083576;27;20050;-82
2022/03/01 04:39:22;;;;;;;19.40;9.35;;;4.20;91.60;;;;;;5100530;27;20045;-81
2022/03/01 04:41:48;;;;;;;24.88;10.27;;;4.40;91.80;;;;;;5099902;27;20497;-81
2022/03/01 04:44:14;;;;;;;18.00;9.50;;;4.40;91.60;;;;;;5117190;27;20039;-81
2022/03/01 04:46:41;;;;;;;26.33;10.60;;;4.30;91.50;;;;;;5117118;27;20096;-81
2022/03/01 04:49:07;;;;;;;22.40;9.90;;;4.40;91.60;;;;;;5117275;27;20402;-81
2022/03/01 04:51:33;;;;;;;25.52;9.18;;;4.50;91.60;;;;;;5117188;27;20046;-81
2022/03/01 04:53:59;;;;;;;21.52;10.40;;;4.50;91.70;;;;;;5117140;27;20051;-81
2022/03/01 04:56:25;;;;;;;24.92;10.90;;;4.50;91.50;;;;;;5116741;27;20091;-81
2022/03/01 04:58:52;;;;;;;20.25;10.18;;;4.50;91.40;;;;;;5083097;27;20394;-81
2022/03/01 05:01:18;;;;;;;23.55;9.98;;;4.50;91.60;;;;;;5117083;27;20047;-81
2022/03/01 05:03:43;;;;;;;21.45;10.48;;;4.40;91.40;;;;;;5083150;27;20130;-81
2022/03/01 05:06:09;;;;;;;21.00;10.10;;;4.30;91.50;;;;;;5082956;27;20397;-81
2022/03/01 05:08:35;;;;;;;18.52;10.18;;;4.40;91.70;;;;;;5117470;27;20047;-81
2022/03/01 05:11:02;;;;;;;20.00;9.70;;;4.50;91.70;;;;;;5117059;27;20043;-81
2022/03/01 05:13:28;;;;;;;21.60;10.77;;;4.50;91.40;;;;;;5099681;27;20425;-81
2022/03/01 05:15:53;;;;;;;20.05;9.50;;;4.40;91.30;;;;;;5116793;27;20051;-81
2022/03/01 05:18:21;;;;;;;20.15;9.73;;;4.40;91.40;;;;;;5115381;27;20053;-81
2022/03/01 05:20:47;;;;;;;21.50;10.20;;;4.30;91.40;;;;;;5082132;27;20057;-81
2022/03/01 05:23:13;;;;;;;18.67;9.55;;;4.30;91.50;;;;;;5099491;27;20047;-81
2022/03/01 05:25:39;;;;;;;20.80;9.90;;;4.30;91.50;;;;;;5116633;28;20070;-82
2022/03/01 05:28:05;;;;;;;17.15;9.57;;;4.30;91.40;;;;;;5116337;27;20050;-81
2022/03/01 05:30:30;;;;;;;21.38;10.25;;;4.30;91.60;;;;;;5117380;28;20035;-81
2022/03/01 05:32:57;;;;;;;21.08;10.15;;;4.30;91.70;;;;;;5117026;28;20493;-81
2022/03/01 05:35:26;;;;;;;18.58;9.82;;;4.30;91.50;;;;;;5116881;28;20409;-81
2022/03/01 05:37:54;;;;;;;19.40;9.27;;;4.40;91.40;;;;;;5099602;28;20136;-81
2022/03/01 05:40:22;;;;;;;20.70;10.35;;;4.50;91.30;;;;;;5116667;28;20043;-81
2022/03/01 05:42:48;;;;;;;23.33;10.18;;;4.40;91.40;;;;;;5117416;28;20046;-81
2022/03/01 05:45:14;;;;;;;20.70;9.70;;;4.50;91.30;;;;;;5116297;28;20047;-81
2022/03/01 05:47:43;;;;;;;20.50;10.18;;;4.50;91.30;;;;;;5116194;28;20047;-81
2022/03/01 05:50:10;;;;;;;23.08;10.10;;;4.60;91.30;;;;;;5116215;28;20065;-81
2022/03/01 05:52:37;;;;;;;20.33;10.68;;;4.50;91.10;;;;;;5099345;28;20431;-81
2022/03/01 05:55:04;;;;;;;18.38;9.40;;;4.50;91.30;;;;;;5118898;27;20043;-81
2022/03/01 05:57:30;;;;;;;19.08;9.95;;;4.50;91.30;;;;;;5120189;27;20051;-81
2022/03/01 05:59:57;;;;;;;21.67;10.20;;;4.50;91.30;;;;;;5103632;27;20039;-81
2022/03/01 06:02:23;;;;;;;20.05;9.98;;;4.40;91.30;;;;;;5120581;27;20480;-81
2022/03/01 06:04:48;;;;;;;19.63;9.77;;;4.40;91.20;;;;;;5103211;27;20043;-81
2022/03/01 06:07:14;;;;;;;23.10;10.20;;;4.40;91.40;;;;;;5120505;27;20125;-81
2022/03/01 06:09:40;;;;;;;20.95;9.93;;;4.40;91.50;;;;;;5086110;27;20046;-81
2022/03/01 06:12:06;;;;;;;20.38;10.52;;;4.60;91.60;;;;;;5103101;27;20046;-81
2022/03/01 06:14:32;;;;;;;21.48;10.73;;;4.70;91.60;;;;;;5120524;27;20478;-81
2022/03/01 06:16:57;;;;;;;21.33;10.43;;;4.80;91.50;;;;;;5120472;27;20050;-81
2022/03/01 06:19:23;;;;;;;20.38;10.45;;;4.80;91.20;;;;;;5103145;27;20054;-81
2022/03/01 06:21:49;;;;;;;21.15;10.45;;;4.80;91.10;;;;;;5085994;27;20130;-81
2022/03/01 06:24:15;;;;;;;20.95;10.25;;;4.80;91.40;;;;;;5102982;27;20099;-81
2022/03/01 06:26:40;;;;;;;21.30;9.95;;;4.80;91.20;;;;;;5119774;27;20039;-81
2022/03/01 06:29:06;;;;;;;20.88;10.57;;;4.80;91.00;;;;;;5120024;27;20101;-81
2022/03/01 06:31:32;;;;;;;19.40;10.18;;;4.80;91.10;;;;;;5119874;27;20043;-81
2022/03/01 06:33:58;;;;;;;22.65;11.00;;;4.80;91.30;;;;;;5119966;27;20448;-81
2022/03/01 06:36:24;;;;;;;21.27;10.40;;;4.80;91.00;;;;;;5120093;27;20045;-81
2022/03/01 06:38:50;;;;;;;19.35;10.23;;;4.70;91.40;;;;;;5103033;27;20042;-81
2022/03/01 06:41:16;;;;;;;21.80;11.05;;;4.70;91.10;;;;;;5119451;27;20092;-81
2022/03/01 06:43:42;;;;;;;22.08;10.27;;;4.90;91.10;;;;;;5085690;27;20046;-81
2022/03/01 06:46:08;;;;;;;25.63;10.52;;;4.90;91.00;;;;;;5102920;27;20050;-81
2022/03/01 06:48:34;;;;;;;20.85;11.07;;;4.90;90.80;;;;;;5119604;27;20074;-81
2022/03/01 06:51:02;;;;;;;19.45;10.65;;;5.00;91.20;;;;;;5119552;27;20039;-81
2022/03/01 06:53:27;;;;;;;20.95;10.43;;;4.90;91.50;;;;;;5102521;27;20106;-81
2022/03/01 06:55:53;;;;;;;19.75;10.25;;;5.00;91.50;;;;;;5119423;27;20129;-81
2022/03/01 06:58:19;;;;;;;20.25;10.65;;;5.10;91.60;;;;;;5101974;27;20047;-81
2022/03/01 07:00:44;;;;;;;21.85;10.93;;;5.20;91.90;;;;;;5119427;27;20047;-81
2022/03/01 07:03:10;;;;;;;21.80;10.00;;;5.10;91.60;;;;;;5087745;27;20043;-81
2022/03/01 07:05:36;;;;;;;22.65;10.93;;;5.10;91.30;;;;;;5118487;27;20470;-81
2022/03/01 07:08:02;;;;;;;30.20;12.15;;;5.00;91.60;;;;;;5119207;27;20043;-81
2022/03/01 07:10:28;;;;;;;18.58;10.43;;;5.00;91.30;;;;;;5102025;27;20500;-81
2022/03/01 07:12:54;;;;;;;22.08;10.95;;;5.00;91.10;;;;;;5101856;27;20130;-81
2022/03/01 07:15:19;;;;;;;22.02;11.40;;;5.00;91.10;;;;;;5101777;27;20062;-81
2022/03/01 07:17:46;;;;;;;21.13;10.10;;;5.00;91.10;;;;;;5085185;27;20039;-81
2022/03/01 07:20:12;;;;;;;23.08;11.90;;;5.00;91.10;;;;;;5102301;27;20051;-81
2022/03/01 07:22:38;;;;;;;20.40;10.68;;;5.30;91.10;;;;;;5102110;27;20042;-80
2022/03/01 07:25:05;;;;;;;21.58;10.52;;;5.30;90.60;;;;;;5118721;27;20043;-81
2022/03/01 07:27:31;;;;;;;22.73;11.38;;;5.30;90.60;;;;;;5118482;27;20370;-81
2022/03/01 07:29:57;;;;;;;22.27;10.95;;;5.40;90.80;;;;;;5106525;27;20054;-81
2022/03/01 07:32:23;;;;;;;22.40;11.43;;;5.50;90.80;;;;;;5138968;27;20129;-81
2022/03/01 07:34:49;;;;;;;19.25;10.13;;;5.50;91.00;;;;;;5121664;27;20507;-81
2022/03/01 07:37:15;;;;;;;20.55;10.98;;;5.60;90.70;;;;;;5138310;27;20075;-82
2022/03/01 07:39:41;;;;;;;21.95;10.52;;;5.50;90.50;;;;;;5137908;27;20469;-81
2022/03/01 07:42:06;;;;;;;22.17;10.40;;;5.40;90.70;;;;;;5118320;27;20122;-79
2022/03/01 07:44:36;;;;;;;20.95;10.38;;;5.40;90.50;;;;;;5156826;27;20043;-73
2022/03/01 07:47:05;;;;;;;22.88;11.00;;;5.40;90.70;;;;;;5139220;27;20051;-73
2022/03/01 07:49:30;;;;;;;19.95;10.65;;;5.40;90.70;;;;;;5138762;27;20047;-75
2022/03/01 07:51:56;;;;;;;21.98;10.65;;;5.40;90.90;;;;;;5138779;27;20099;-71
2022/03/01 07:54:22;;;;;;;23.88;11.15;;;5.30;91.00;;;;;;5138745;27;20042;-74
2022/03/01 07:56:47;;;;;;;20.35;10.65;;;5.30;90.90;;;;;;5138628;27;20046;-74
2022/03/01 07:59:13;;;;;;;20.63;11.10;;;5.40;90.80;;;;;;5138899;27;20043;-74
2022/03/01 08:01:39;;;;;;;20.38;10.60;;;5.60;90.90;;;;;;5121723;27;20435;-73
2022/03/01 08:04:04;;;;;;;20.92;10.73;;;5.50;90.70;;;;;;5114359;27;20043;-74
2022/03/01 08:06:30;;;;;;;26.38;12.07;;;5.60;90.80;;;;;;5102639;27;20064;-74
2022/03/01 08:08:56;;;;;;;24.05;11.10;;;5.70;90.70;;;;;;5088432;27;20042;-74
2022/03/01 08:11:21;;;;;;;22.90;10.90;;;5.70;91.00;;;;;;5137726;27;20389;-74
2022/03/01 08:13:47;;;;;;;21.15;10.73;;;5.80;90.70;;;;;;5134315;27;20410;-74
2022/03/01 08:16:13;;;;;;;21.77;11.15;;;5.60;90.80;;;;;;5135509;27;20086;-73
2022/03/01 08:18:39;;;;;;;20.63;10.43;;;5.60;90.80;;;;;;5114591;27;20053;-73
2022/03/01 08:21:06;;;;;;;23.30;10.77;;;5.50;90.80;;;;;;5118840;27;20047;-74
2022/03/01 08:23:33;;;;;;;23.98;11.63;;;5.50;90.90;;;;;;5109616;27;20082;-78
2022/03/01 08:26:04;;;;;;;24.02;10.95;;;5.50;91.10;;;;;;5129591;27;20055;-74
2022/03/01 08:28:30;;;;;;;25.08;10.38;;;5.50;91.20;;;;;;5112705;28;20087;-74
2022/03/01 08:30:56;;;;;;;25.40;10.98;;;5.40;91.10;;;;;;5112578;28;20051;-74
2022/03/01 08:33:24;;;;;;;23.83;11.13;;;5.50;91.10;;;;;;5113538;28;20048;-73
2022/03/01 08:35:50;;;;;;;22.60;11.00;;;5.50;90.90;;;;;;5114273;28;20055;-74
2022/03/01 08:38:16;;;;;;;23.63;11.13;;;5.70;91.10;;;;;;5115031;28;20043;-73
2022/03/01 08:40:43;;;;;;;20.60;10.40;;;6.00;91.30;;;;;;5113986;28;20070;-73
2022/03/01 08:43:11;;;;;;;23.10;11.63;;;6.20;90.80;;;;;;5114938;28;20047;-74
2022/03/01 08:45:38;;;;;;;24.35;11.88;;;6.10;90.90;;;;;;5114886;28;20050;-73
2022/03/01 08:48:04;;;;;;;22.33;11.68;;;6.30;91.20;;;;;;5115070;28;20433;-73
2022/03/01 08:50:30;;;;;;;23.58;11.32;;;6.40;90.60;;;;;;5114643;28;20051;-73
2022/03/01 08:52:57;;;;;;;20.60;11.02;;;6.20;90.50;;;;;;5114834;28;20079;-73
2022/03/01 08:55:22;;;;;;;23.40;11.63;;;6.20;90.80;;;;;;5113737;28;20040;-73
2022/03/01 08:57:48;;;;;;;27.38;11.32;;;6.20;90.80;;;;;;5096237;28;20168;-73
2022/03/01 09:00:15;;;;;;;22.23;12.00;;;6.20;90.70;;;;;;5096653;28;20047;-73
2022/03/01 09:02:41;;;;;;;22.15;11.68;;;6.20;90.50;;;;;;5098075;28;20047;-77
2022/03/01 09:05:07;;;;;;;23.85;12.40;;;6.40;91.60;;;;;;5113459;28;20475;-80
2022/03/01 09:07:34;;;;;;;24.80;12.90;;;6.40;91.70;;;;;;5113755;28;20047;-78
2022/03/01 09:10:01;;;;;;;24.13;11.80;;;6.70;92.70;;;;;;5113601;28;20047;-78
2022/03/01 09:12:27;;;;;;;25.35;12.05;;;6.90;92.80;;;;;;5113266;28;20051;-76
2022/03/01 09:14:52;;;;;;;22.13;12.13;;;6.90;91.20;;;;;;5113880;28;20390;-75
2022/03/01 09:17:18;;;;;;;23.92;11.98;;;6.80;90.60;;;;;;5113422;28;20120;-71
2022/03/01 09:19:44;;;;;;;25.67;12.05;;;6.90;90.50;;;;;;5114479;28;20051;-78
2022/03/01 09:22:10;;;;;;;24.73;12.15;;;6.90;90.80;;;;;;5096438;28;20434;-73
2022/03/01 09:24:36;;;;;;;26.65;12.45;;;6.90;90.70;;;;;;5113581;28;20044;-72
2022/03/01 09:27:02;;;;;;;26.40;11.75;;;6.90;90.60;;;;;;5113811;28;20188;-72
2022/03/01 09:29:30;;;;;;;22.95;11.40;;;7.00;90.60;;;;;;5113107;28;20466;-72
2022/03/01 09:31:56;;;;;;;23.70;12.60;;;7.20;90.00;;;;;;5113422;28;20054;-72
2022/03/01 09:34:22;;;;;;;22.63;11.63;;;7.30;90.40;;;;;;5113337;28;20096;-71
2022/03/01 09:36:47;;;;;;;27.30;12.20;;;7.30;89.90;;;;;;5113191;28;20386;-71
2022/03/01 09:39:13;;;;;;;21.83;11.73;;;7.20;89.50;;;;;;5112919;28;20437;-73
2022/03/01 09:41:39;;;;;;;21.63;12.30;;;7.20;89.60;;;;;;5112762;28;20081;-72
2022/03/01 09:44:05;;;;;;;23.35;11.35;;;7.40;90.00;;;;;;5112979;28;20122;-75
2022/03/01 09:46:31;;;;;;;23.92;10.80;;;7.40;89.00;;;;;;5113807;28;20044;-74
2022/03/01 09:48:57;;;;;;;23.83;12.57;;;7.40;89.20;;;;;;5113088;28;20096;-74
2022/03/01 09:51:24;;;;;;;21.58;11.63;;;7.50;89.60;;;;;;5113043;28;20066;-74
2022/03/01 09:53:51;;;;;;;23.13;12.15;;;7.50;89.50;;;;;;5113034;28;20044;-74
2022/03/01 09:56:18;;;;;;;23.75;11.27;;;7.60;89.40;;;;;;5112601;28;20043;-77
2022/03/01 09:58:46;;;;;;;22.92;12.15;;;7.60;89.10;;;;;;5112995;28;20039;-77
2022/03/01 10:01:14;;;;;;;21.23;11.73;;;7.60;88.80;;;;;;5112823;28;20519;-77
2022/03/01 10:03:40;;;;;;;24.38;11.75;;;7.60;89.00;;;;;;5095876;28;20043;-76
2022/03/01 10:06:11;;;;;;;22.45;12.02;;;7.60;89.20;;;;;;5112941;28;20451;-82
2022/03/01 10:08:37;;;;;;;21.27;10.98;;;7.60;89.80;;;;;;5112949;28;20035;-76
2022/03/01 10:11:04;;;;;;;24.30;12.43;;;7.70;90.10;;;;;;5113001;28;20050;-77
2022/03/01 10:13:32;;;;;;;22.50;12.27;;;7.90;89.30;;;;;;5095394;28;20059;-77
2022/03/01 10:16:14;;;;;;;23.58;12.07;;;7.90;88.80;;;;;;5112838;28;20506;-76
2022/03/01 10:18:52;;;;;;;26.88;13.20;;;8.00;88.90;;;;;;5113107;28;20051;-77
2022/03/01 10:21:21;;;;;;;23.27;12.30;;;8.20;89.50;;;;;;5113265;28;20044;-76
2022/03/01 10:23:55;;;;;;;20.60;12.63;;;8.40;89.00;;;;;;5095711;28;20035;-76
2022/03/01 10:26:28;;;;;;;20.02;11.20;;;8.60;88.50;;;;;;5112299;28;20044;-76
2022/03/01 10:28:56;;;;;;;21.55;11.90;;;8.50;86.80;;;;;;5113399;28;20054;-76
2022/03/01 10:31:30;;;;;;;23.75;12.43;;;8.70;87.50;;;;;;5112662;28;20051;-78
2022/03/01 10:34:13;;;;;;;21.75;12.38;;;8.80;87.20;;;;;;5112717;28;20043;-81
2022/03/01 10:36:49;;;;;;;22.30;11.38;;;8.60;86.70;;;;;;5095978;28;20059;-80
2022/03/01 10:39:20;;;;;;;25.25;11.45;;;8.60;87.70;;;;;;5112476;28;20493;-80
2022/03/01 10:41:48;;;;;;;26.15;11.70;;;8.40;87.10;;;;;;5098555;28;20135;-74
2022/03/01 10:44:17;;;;;;;21.90;12.13;;;8.70;87.50;;;;;;5116162;28;20051;-76
2022/03/01 10:46:53;;;;;;;23.75;12.68;;;9.00;87.50;;;;;;5116407;28;20050;-76
2022/03/01 10:49:23;;;;;;;;;;;9.30;87.70;;;;;;5116926;28;20486;-76
2022/03/01 10:51:59;;;;;;;23.85;12.00;;;9.40;86.60;;;;;;5116227;28;19923;-76
2022/03/01 10:54:28;;;;;;;25.75;11.80;;;9.50;85.40;;;;;;5116247;28;20055;-73
2022/03/01 10:56:55;;;;;;;25.10;12.32;;;9.60;86.80;;;;;;5118579;28;20079;-76
2022/03/01 10:59:25;;;;;;;21.05;11.45;;;9.90;86.20;;;;;;5116023;28;20100;-79
2022/03/01 11:01:52;;;;;;;20.05;12.25;;;10.00;86.10;;;;;;5116316;28;20470;-78
2022/03/01 11:04:21;;;;;;;21.83;12.15;;;10.10;85.80;;;;;;5115816;28;20390;-79
2022/03/01 11:06:48;;;;;;;21.67;11.77;;;10.20;85.70;;;;;;5115923;28;20110;-78
2022/03/01 11:09:15;;;;;;;26.13;12.38;;;10.10;84.00;;;;;;5115790;28;20047;-78
2022/03/01 11:11:42;;;;;;;24.50;12.60;;;10.00;84.70;;;;;;5099044;28;20470;-79
2022/03/01 11:14:15;;;;;;;25.80;14.00;;;10.00;85.70;;;;;;5115332;28;20580;-79
2022/03/01 11:17:00;;;;;;;23.13;13.00;;;9.90;86.00;;;;;;5116858;28;20128;-75
2022/03/01 11:19:38;;;;;;;22.30;12.32;;;9.90;85.60;;;;;;5117110;28;20055;-75
2022/03/01 11:22:06;;;;;;;23.80;12.57;;;9.80;85.50;;;;;;5100448;28;20043;-75
2022/03/01 11:24:32;;;;;;;23.33;12.25;;;9.90;86.10;;;;;;5116002;28;20043;-75
2022/03/01 11:27:06;;;;;;;21.98;12.77;;;10.00;86.40;;;;;;5098099;28;20386;-75
2022/03/01 11:29:38;;;;;;;23.30;12.57;;;10.00;86.10;;;;;;5098438;28;20043;-75
2022/03/01 11:32:15;;;;;;;23.02;11.77;;;9.90;85.30;;;;;;5115541;28;20140;-75
2022/03/01 11:34:42;;;;;;;24.77;12.68;;;10.00;86.00;;;;;;5115351;28;20062;-75
2022/03/01 11:37:22;;;;;;;25.58;13.63;;;10.00;84.40;;;;;;5115822;28;20058;-76
2022/03/01 11:40:00;;;;;;;22.30;12.75;;;9.80;84.70;;;;;;5098316;28;20052;-76
2022/03/01 11:42:32;;;;;;;22.75;12.85;;;9.70;85.50;;;;;;5115228;28;20035;-76
2022/03/01 11:45:08;;;;;;;23.30;12.90;;;9.90;85.00;;;;;;5114961;28;20040;-76
2022/03/01 11:47:34;;;;;;;23.02;12.35;;;9.70;85.10;;;;;;5115197;28;20055;-76
2022/03/01 11:50:29;;;;;;;23.08;12.38;;;9.80;85.60;;;;;;5114995;28;20126;-76
2022/03/01 11:53:07;;;;;;;28.55;13.05;;;9.70;84.40;;;;;;5092536;28;20059;-76
2022/03/01 11:55:46;;;;;;;26.23;12.52;;;9.70;85.10;;;;;;5114955;28;20474;-82
2022/03/01 11:58:13;;;;;;;23.33;13.25;;;9.50;84.30;;;;;;5097206;28;20055;-77
2022/03/01 12:00:40;;;;;;;25.40;13.38;;;9.50;84.60;;;;;;5097840;28;20051;-77
2022/03/01 12:03:09;;;;;;;23.02;12.95;;;9.70;84.90;;;;;;5097766;28;20181;-77
2022/03/01 12:05:36;;;;;;;23.10;12.95;;;9.70;84.80;;;;;;5097418;28;20039;-76
2022/03/01 12:08:05;;;;;;;23.08;12.85;;;9.80;84.10;;;;;;5114970;28;20053;-76
2022/03/01 12:10:31;;;;;;;22.48;12.35;;;9.70;84.20;;;;;;5115054;28;20474;-79
2022/03/01 12:12:57;;;;;;;25.70;14.40;;;9.70;84.40;;;;;;5114073;28;20108;-77
2022/03/01 12:15:41;;;;;;;22.02;13.25;;;9.80;84.30;;;;;;5114726;28;20097;-77
2022/03/01 12:18:16;;;;;;;23.55;12.52;;;9.90;84.10;;;;;;5097731;28;20048;-77
2022/03/01 12:20:47;;;;;;;25.30;12.98;;;10.00;85.30;;;;;;5114337;28;20036;-77
2022/03/01 12:23:33;;;;;;;21.80;12.57;;;10.10;85.40;;;;;;5097704;28;20494;-77
2022/03/01 12:26:02;;;;;;;22.75;13.30;;;10.10;83.80;;;;;;5097512;28;20487;-76
2022/03/01 12:28:37;;;;;;;22.65;12.18;;;10.20;86.40;;;;;;5097024;28;20047;-76
2022/03/01 12:31:16;;;;;;;24.60;13.75;;;10.10;84.90;;;;;;5115252;28;20047;-77
2022/03/01 12:33:55;;;;;;;25.45;13.82;;;10.20;86.00;;;;;;5113907;28;20100;-77
2022/03/01 12:36:28;;;;;;;23.52;13.85;;;10.30;84.80;;;;;;5097999;28;20039;-77
2022/03/01 12:38:56;;;;;;;31.85;16.30;;;10.30;85.20;;;;;;5097003;28;20052;-77
2022/03/01 12:41:23;;;;;;;26.80;14.98;;;10.30;84.30;;;;;;5097111;28;20086;-77
2022/03/01 12:43:58;;;;;;;24.48;13.57;;;10.30;84.40;;;;;;5097779;28;20101;-76